ACT        NSW        VIC        QLD        SA        WA        TAS        NT        INFO        CALC            by VK5ZD

Past Date/Time: (dd/mm/yyyy hh:mm or blank for current data)    

  Atmospheric Gas Attenuation - ITU Rec 676-11   --------------- dB/100km ---------------
WA Stations Date Time Temp RH % AH g/m3 Dew Point Wind Direction Speed kph Gust kph Barometer mB Rainfall Since 9am 24GHz 47GHz 76GHz 122GHz 134GHz 241GHz
Albany Airport 10/05 22:00 13.6 89 10.47 11.8 17 24 1025.5 0 23.6 29.6 48.3 127.0 125.5 433.1
Badgingarra 10/05 22:00 14.6 41 5.13 1.5 15 17 1013.1 0 12.2 20.5 26.5 69.0 54.9 186.1
Barimunya 10/05 22:00 18.4 23 3.62 -3.1 13 19 1020.4 0 8.9 17.9 20.8 53.5 36.8 122.6
Barrow Island 10/05 22:00 20.5 59 10.5 12.2 7 9 1017.7 0 23.3 27.1 44.0 115.7 114.4 395.4
Bedout Island 10/05 22:00 25 47 10.82 12.9 24 30 1016.3 0 23.7 26.2 42.7 112.4 111.9 386.9
Bickley 10/05 22:00 13.4 53 6.16 4 20 32 1013.1 0 14.4 22.2 30.6 79.9 67.9 231.7
Boolgeeda 10/05 22:00 18.7 16 2.56 -7.6 15 19 1019.1 0 6.7 16.5 17.5 44.7 26.1 84.7
Bridgetown 10/05 22:00 6.5 94 7.05 5.6 0 0 1024.5 0 16.6 25.9 37.5 98.0 87.1 297.7
Broome 10/05 22:00 20.6 86 15.39 18.2 6 7 1015.6 0 33.7 35.4 64.6 170.7 182.1 631.7
Bunbury 10/05 22:00 9.9 97 9.06 9.4 4 6 1023.9 0 20.8 28.3 44.3 116.2 110.9 381.7
Busselton Airport 10/05 22:00 7.8 92 7.51 6.6 9 9 1023.4 0 17.5 26.2 38.8 101.4 91.9 314.6
Cape Leeuwin 10/05 22:00 14.8 77 9.75 10.8 24 28 1022.9 0 22.0 27.9 44.4 116.6 113.3 390.7
Cape Naturaliste 10/05 22:00 17.3 81 11.93 14 15 22 1022.9 0 26.5 30.7 52.1 137.2 139.6 482.8
Carnarvon 10/05 22:00 14.6 23 2.88 -6.3 15 15 1020.2 0 7.5 17.7 19.4 49.7 30.7 100.7
Christmas Creek 10/05 22:00 16.6 23 3.25 -4.6 6 9 1020.6 0 8.2 17.8 20.1 51.6 33.8 111.7
Christmas Island 10/05 22:00 25.8 91 21.91 24.2 15 24 1011.5 0 47.1 45.2 90.4 239.3 268.2 931.6
Cocos Island 10/05 22:00 27.1 89 23.03 25.1 20 30 1011.8 2.8 49.3 46.8 94.4 250.1 281.8 979.0
Collie East 10/05 22:00 6.2 87 6.4 4.2 0 0 1013.1 0 15.2 24.4 34.4 90.1 77.7 264.9
Coondewanna 10/05 22:00 12.2 28 3.02 -5.7 6 7 1020.3 0 7.8 18.3 20.4 52.4 33.1 108.9
Cunderdin Airport 10/05 22:00 8.7 70 6.06 3.5 6 7 1025.5 0 14.4 23.7 32.5 84.8 71.6 243.8
Curtin 10/05 22:00 23.2 45 9.35 10.6 13 15 1014.1 0 20.7 24.5 38.1 100.1 96.2 332.1
Dalwallinu 10/05 22:00 12.2 47 5.07 1.2 6 7 1024.4 0 12.1 21.3 27.5 71.4 56.5 191.1
Dwellingup 10/05 22:00 9.3 80 7.19 6 22 28 1024.6 0 16.8 25.3 36.8 96.1 85.8 293.8
Eliwana Airport 10/05 22:00 18.2 16 2.49 -8 9 11 1013.1 0 6.6 16.3 17.2 44.1 25.4 82.4
Esperance 10/05 22:00 13.7 89 10.54 11.9 17 22 1029.1 0 23.7 29.8 48.7 128.0 126.7 437.2
Esperance Airport 10/05 22:00 12.7 92 10.24 11.4 15 22 1029 0 23.1 29.6 48.0 126.2 124.0 427.7
Eucla 10/05 22:00 15.6 82 10.9 12.5 13 19 1029.4 1 24.4 29.8 49.1 129.1 128.7 444.3
Fitzroy Crossing 10/05 22:00 20.1 53 9.21 10.2 1015.1 0 20.6 25.1 39.1 102.8 98.4 339.4
Forrest 10/05 22:00 14.5 83 10.32 11.7 13 15 1029.2 0 23.2 29.2 47.3 124.2 122.3 421.9
Fortescue Dave Forrest 10/05 22:00 15.9 25 3.39 -4.1 4 6 1020.1 0 8.5 18.1 20.6 53.2 35.5 117.7
Garden Island 10/05 22:00 12.7 82 9.13 9.7 4 11 1023.9 0 20.8 27.5 43.0 112.9 107.9 371.5
Geraldton Airport 10/05 22:00 12.9 37 4.17 -1.4 9 11 1022.6 0 10.2 19.8 24.1 62.3 45.5 152.8
Gerangamete (Cfa) 10/05 23:50 9.4 100 9.05 9.4 0 0 1013.1 0 20.8 28.0 44.0 115.7 110.5 380.4
Giles* 10/05 23:30 16.4 42 5.86 3.5 17 20 1023.4 0 13.7 21.4 28.8 75.0 62.6 213.0
Gingin Airport 10/05 22:00 9.7 58 5.35 1.8 6 7 1024.2 0 12.8 22.3 29.4 76.4 61.7 209.2
Golden Grove 10/05 22:00 12.7 38 4.23 -1.2 7 9 1024.1 0 10.4 20.0 24.4 63.1 46.4 155.7
Gooseberry Hill 10/05 22:00 16.5 42 5.9 3.6 28 33 1013.1 0 13.7 21.1 28.6 74.4 62.4 212.5
Gudai-Darri Mine 10/05 22:00 19 22 3.58 -3.2 15 22 1013.1 0 8.8 17.5 20.3 52.3 35.9 119.5
Halls Creek 10/05 23:30 18.1 68 10.51 12.1 0 0 1016.2 0 23.4 27.8 45.3 119.2 118.0 407.6
Hopetoun North 10/05 22:00 12.8 95 10.64 12 9 9 1027 0.2 24.0 30.2 49.6 130.5 129.4 446.7
Iron Bridge Mine 10/05 22:00 17.3 22 3.24 -4.6 6 7 1018.5 0 8.2 17.6 19.8 50.9 33.3 110.2
Jacup 10/05 22:00 9.6 77 7.06 5.8 13 15 1026.7 0 16.5 25.1 36.2 94.6 83.9 287.1
Jandakot 10/05 22:00 11.5 63 6.51 4.7 7 7 1023.9 0 15.2 23.6 33.1 86.3 74.7 254.9
Kalgoorlie-Boulder 10/05 22:00 13.8 70 8.34 8.4 15 22 1027.8 0 19.0 26.0 39.4 103.2 96.1 330.4
Kalumburu 10/05 23:30 20.6 83 14.85 17.6 0 7 1014.6 0 32.5 34.3 62.1 164.0 174.0 603.4
Karijini North 10/05 22:00 20.6 16 2.86 -6.1 15 24 1019.6 0 7.3 16.6 18.0 46.0 28.4 93.1
Karnet 10/05 15:00 20.9 37 6.74 5.9 2 1013.1 0 15.4 21.3 29.9 78.1 68.3 233.9
Karratha 10/05 22:00 18.1 69 10.66 12.3 17 20 1018.1 0 23.7 28.1 46.0 121.1 120.2 415.3
Katanning Rs 10/05 22:00 12.4 59 6.45 4.6 6 6 1025.9 0 15.1 23.4 32.6 84.9 73.2 249.8
Koolan Island / Koolan Central 10/05 22:00 25.8 59 14.2 17.4 13 15 1013.1 0 30.7 31.2 55.3 146.0 153.5 532.7
Kununurra Airport 10/05 23:30 22.5 72 14.38 17.2 0 0 1015.2 0 31.4 32.8 58.6 154.7 163.1 565.5
Lake Grace 10/05 22:00 15.1 49 6.32 4.5 13 17 1026.4 0 14.7 22.5 31.1 80.9 69.2 236.2
Lancelin (Defence) 10/05 22:00 15.4 41 5.39 2.2 11 17 1023.1 0 12.7 21.0 27.5 71.5 57.9 196.4
Laverton 10/05 22:00 14.7 61 7.68 7.3 19 24 1026.8 0 17.6 24.7 36.3 95.0 86.5 296.6
Learmonth 10/05 22:00 17.2 51 7.47 7 17 19 1018.7 0 17.0 23.4 34.1 89.3 80.6 276.6
Legendre Island 10/05 22:00 24.9 43 9.84 11.5 9 13 1017.8 0 21.6 24.8 39.3 103.1 100.3 346.4
Leinster 10/05 22:00 14.3 46 5.65 2.9 11 15 1024.3 0 13.3 21.6 28.9 75.0 61.8 210.0
Leonora Airport 10/05 22:00 15.5 52 6.87 5.7 17 24 1026.2 0 15.8 23.2 32.9 85.9 75.5 258.3
Lombadina 10/05 22:00 20.9 78 14.2 16.9 6 7 1014.8 0 31.1 33.1 59.0 155.7 163.9 568.2
Mandora 10/05 22:00 19.7 37 6.28 4.6 11 15 1016.3 0 14.4 21.0 28.9 75.3 64.3 219.8
Mandurah 10/05 22:00 15 62 7.95 7.8 2 6 1023.7 0 18.1 24.9 37.1 97.1 89.3 306.8
Manjimup 10/05 22:00 12.5 64 7.04 5.9 13 17 1024.3 0 16.3 24.2 34.7 90.7 80.5 275.3
Marble Bar 10/05 22:00 20.1 20 3.48 -3.5 11 13 1018.4 0 8.6 17.4 19.9 51.2 34.6 115.0
Mardie 10/05 22:00 18.4 64 10.07 11.5 11 13 1018.3 0 22.5 27.1 43.5 114.3 111.9 386.4
Meekatharra 10/05 22:00 15.4 31 4.07 -1.6 13 17 1023.1 0 9.9 19.2 23.1 59.6 43.1 144.4
Millendon (Swan Valley) 10/05 22:00 11.1 64 6.45 4.6 0 0 1023.9 0 15.1 23.6 33.0 86.1 74.3 253.5
Morawa Airport 10/05 22:00 13.2 40 4.59 -0.1 11 13 1023.8 0 11.1 20.4 25.5 66.0 50.2 169.1
Mount Keith 10/05 22:00 14.3 44 5.41 2.2 11 15 1024.7 0 12.8 21.3 28.0 72.8 59.0 200.2
Mount Magnet Airport 10/05 22:00 15.7 35 4.68 0.3 13 17 1023.6 0 11.2 19.9 25.0 64.8 49.7 167.6
Munglinup West 10/05 22:00 12.5 79 8.69 9 20 28 1027.5 0 19.8 27.0 41.5 108.7 102.5 352.4
Murchison 10/05 09:00 21.9 67 12.93 15.6 28 1023.7 0 28.3 30.9 53.3 140.5 145.1 502.5
Newdegate 10/05 22:00 9 72 6.35 4.2 4 6 1026.4 0 15.0 24.1 33.6 87.6 75.2 256.3
Newman Airport 10/05 22:00 13.1 30 3.42 -4.1 9 11 1020.7 0 8.6 18.7 21.5 55.3 37.1 123.0
Norseman Airport 10/05 22:00 13.6 71 8.36 8.4 11 19 1028.4 0 19.1 26.1 39.6 103.7 96.7 332.3
North Island 10/05 22:00 20.9 54 9.83 11.3 20 24 1021.9 0 21.8 26.1 41.4 108.7 105.7 364.9
Onslow Airport 10/05 22:00 19.6 68 11.48 13.5 13 15 1019.1 0 25.4 29.0 48.5 127.8 128.9 445.9
Paraburdoo 10/05 22:00 18.7 16 2.56 -7.6 11 15 1019.6 0 6.7 16.5 17.5 44.7 26.1 84.8
Pearce 10/05 22:00 16.6 38 5.37 2.2 13 17 1023.8 0 12.6 20.7 27.1 70.3 56.8 192.9
Perth 10/05 22:00 10.5 80 7.76 7.2 0 0 1024 0 17.9 25.9 38.5 100.8 92.1 315.9
Perth Airport 10/05 22:00 15.8 45 6.06 3.9 11 13 1023.9 0 14.1 21.9 29.8 77.5 65.4 222.9
Port Hedland 10/05 22:00 18 30 4.61 0.2 13 17 1017.2 0 11.0 19.2 23.9 61.9 47.2 159.4
Portable Btsa (Dfes) 10/05 21:50 16.9 20 2.88 -6.1 0 0 1013.1 0 7.4 17.0 18.6 47.9 29.6 97.3
Portable Btsb (Dfes) 10/05 21:50 15.1 43 5.55 2.7 7 9 1013.1 0 13.1 20.9 27.8 72.4 59.4 201.9
Portable Btsd (Dfes) 10/05 21:50 13.2 67 7.69 7.2 19 20 1013.1 0 17.7 24.6 36.5 95.6 87.2 299.3
Portable Btsf (Dfes) 10/05 21:00 17.1 33 4.8 0.7 15 19 1013.1 0 11.4 19.5 24.6 64.0 49.6 167.8
Portable Btsh (Dfes) 10/05 21:50 10.9 100 9.95 10.9 4 6 1013.1 0 22.6 29.1 47.1 123.8 121.2 417.8
Portable Btsj (Dfes) 10/05 21:50 10.3 80 7.66 7.1 4 4 1013.1 0 17.7 25.4 37.7 98.8 90.1 309.1
Portable Btsk (Dfes) 10/05 21:50 16.2 32 4.41 -0.4 4 4 1013.1 0 10.6 19.1 23.6 61.2 45.9 154.6
Portable Btsl (Dfes) 10/05 21:50 12.8 87 9.75 10.7 11 15 1013.1 0.2 22.1 28.1 45.1 118.5 115.4 397.8
Portable Btsm (Dfes) 10/05 21:50 16.1 28 3.84 -2.1 2 4 1013.1 0 9.4 18.4 21.8 56.4 39.9 133.3
Portable Btsn (Dfes) 10/05 21:50 15.6 37 4.92 1.2 7 7 1013.1 0 11.7 19.9 25.5 66.2 51.9 175.6
Portable Btso (Dfes) 10/05 21:50 7.8 82 6.7 5 0 0 1013.1 0 15.8 24.5 35.0 91.5 80.1 273.5
Red Rocks Point 10/05 22:00 17.1 81 11.79 13.8 22 24 1029.6 0 26.2 30.8 52.0 136.8 138.7 479.5
Rocky Gully South 10/05 22:00 14.6 53 6.63 5.1 19 26 1013.1 0 15.4 22.6 31.9 83.3 72.6 248.1
Roebourne Airport 10/05 22:00 17 65 9.4 10.4 13 15 1018.4 0 21.1 26.4 41.6 109.2 105.1 362.5
Rottnest Island 10/05 22:00 18.4 53 8.34 8.7 17 20 1023.3 0 18.8 24.6 37.0 96.9 90.3 310.7
Salmon Gums Rs 10/05 22:00 10 92 8.65 8.8 6 7 1013.1 0 19.9 27.1 42.0 110.2 104.1 357.8
Shannon 10/05 22:00 9.9 92 8.59 8.7 13 13 1013.1 0 19.8 27.0 41.8 109.7 103.4 355.3
Shark Bay Airport 10/05 22:00 13.3 46 5.31 1.9 15 17 1020.6 0 12.6 21.3 27.9 72.4 58.3 197.8
Solomon Airport 10/05 22:00 15.1 21 2.71 -7 4 6 1019.2 0 7.1 17.3 18.7 47.9 28.7 93.8
Southern Cross Airport 10/05 22:00 14.1 56 6.8 5.5 17 20 1026.6 0 15.7 23.5 33.2 86.7 76.0 259.9
Swanbourne 10/05 22:00 15.6 56 7.45 6.9 15 19 1013.1 0 17.1 23.6 34.5 90.3 81.6 280.0
Telfer 10/05 22:00 19.5 31 5.2 1.9 17 20 1018.9 0 12.2 19.7 25.4 66.0 52.7 178.9
Thevenard Island 10/05 22:00 20.2 57 9.97 11.4 9 13 1018.8 0 22.2 26.4 42.2 110.8 108.2 373.4
Troughton Island 10/05 23:30 28 67 18.22 21.3 22 26 1014.2 0 39.0 37.3 70.8 187.1 204.7 711.2
Walpole North 10/05 22:00 14.1 65 7.89 7.6 6 7 1023.7 0 18.1 25.1 37.3 97.6 89.6 307.6
Wandering 10/05 22:00 6.1 78 5.7 2.6 0 0 1013.1 0 13.7 23.3 31.7 82.6 68.5 232.7
Warburton 10/05 23:30 14.9 44 5.61 2.8 9 11 1024.3 0 13.2 21.4 28.5 74.1 60.8 206.8
West Angelas 10/05 22:00 15.3 24 3.13 -5.1 9 13 1019.4 0 8.0 17.8 20.0 51.3 33.0 108.9
West Musgrave Airport 10/05 22:00 17.4 40 5.93 3.7 17 20 1013.1 0.2 13.8 20.9 28.3 73.9 62.0 211.3
Wiluna Airport 10/05 22:00 15.8 34 4.58 0 15 20 1024 0 11.0 19.8 24.7 63.9 48.5 163.5
Witchcliffe West 10/05 22:00 12 100 10.66 12 13 15 1022.9 0 24.1 30.4 50.0 131.6 130.7 451.0
Wyndham Airport 10/05 23:30 24.4 55 12.24 14.8 0 0 1014.6 0 26.7 28.5 48.4 127.6 130.5 452.0
Yampi Sound (Defence) 10/05 22:00 19.7 89 15.11 17.8 2 4 1013.1 0 33.2 35.1 64.0 168.9 179.8 623.4

Last Refresh: 10-May-2026 23:33:45

Bureau of Meteorology